Sunday, March 29, 2015
06:04 UTC
  |  Log In   |  Register Free
Airport Search:

Visalia Municipal Airport
(KVIS)

Visalia Municipal Airport Diagram
No Airport Diagram Available

FAA data valid effective March 05, 2015 - April 30, 2015 (unless otherwise noted).

 
 
 
 
 
 
 
 
 
 
 
 
 
 

Current Aviation Weather for Visalia Municipal Airport (KVIS)

The most recent METAR observation for KVIS was updated at: 1415
METAR Summary (Translated METAR)
KVIS
251355Z AUTO 00000KT 5SM CLR 08/04 A3020 RMK AO1
KHJO
251353Z AUTO 00000KT 8SM CLR 09/08 A3021 RMK AO2 SLP230 T00940078
(11.4 nm SW from KVIS)
KPTV
251355Z AUTO 16006KT 10SM CLR 08/05 A3020 RMK AO1
(23.6 nm SE from KVIS)
TAF Summary (Translated TAF)
KVIS
251137Z 2512/2612 30005KT P6SM FEW200
  Airport Weather Conditions for KVIS

 Current Weather at VIS
66° F
Fair
Northwest winds at 5.8 mph
VIS NOAA Radar

Pressure: 30.06 in
Humidity: 52%
Wind: Northwest at 5.8 MPH (5 KT)
Dew Point: 48.2°F
Visibility: 10.00 mi


Airport Weather Forecast for KVIS

Translated METAR and TAF for KVIS
Translated METAR for KVIS (0603 UTC 29 March 2015)
found at http://aviationweather.gov/adds/metars/
 
METAR text: KVIS 290555Z AUTO 31005KT 10SM CLR 18/09 A3007 RMK AO1 10280 20180 52017
Conditions at: KVIS (VISALIA MUNI , CA, US) observed 0555 UTC 29 March 2015
Temperature: 18.0°C (64°F)
Dewpoint: 9.0°C (48°F) [RH = 56%]
Pressure (altimeter): 30.07 inches Hg (1018.4 mb)
Winds: from the NW (310 degrees) at 6 MPH (5 knots; 2.6 m/s)
Visibility: 10 or more miles (16+ km)
Ceiling: at least 12,000 feet AGL
Clouds: sky clear below 12,000 feet AGL
Weather: automated observation with no human augmentation;
there may or may not be significant weather present at this time
Translated TAF for KVIS
Forecast for: KVIS (VISALIA MUNI , CA, US)
TAF Text: KVIS 290539Z 2906/3006 31005KT P6SM FEW200
Forecast period: 0600 UTC 29 March 2015 to 0600 UTC 30 March 2015
Forecast type: FROM: standard forecast or significant change
Winds: from the NW (310 degrees) at 6 MPH (5 knots; 2.6 m/s)
Visibility: 6 or more miles (10+ km)
Clouds: few clouds at 20000 feet AGL
Weather: no significant weather forecast for this period

Find All Airport Services Find A Hotel Find A Rental Car Find A Golf Course Find A Restaurant $100 Hamburger



FBO's on the Field
FBO Company Facility Photos Services Transportation Aviation Fuel Prices: Prices include tax
Catering Weather Repair Courtesy Rental Type 100LL JetA JetA+ MOGAS 8087
 
Add another FBO Facility Photos Catering Weather Repair Courtesy Rental Type 100LL JetA JetA+ MOGAS 8087
Services Transportation Aviation Fuel Prices: Prices include tax
There are no FBO's currently reporting fuel at VIS. List your FBO now


model-print
model-print
model-print
model-print